createdAt,value
2018-07-11T00:00:07.049Z,3.50
2018-07-11T00:02:35.383Z,4.58
2018-07-11T00:05:03.750Z,4.58
2018-07-11T00:07:32.108Z,6.45
2018-07-11T00:10:00.458Z,4.03
2018-07-11T00:12:28.800Z,3.50
2018-07-11T00:14:57.147Z,3.22
2018-07-11T00:17:25.489Z,5.47
2018-07-11T00:19:53.885Z,3.08
2018-07-11T00:22:22.256Z,7.08
2018-07-11T00:24:50.640Z,8.78
2018-07-11T00:27:19.009Z,4.45
2018-07-11T00:29:47.060Z,4.22
2018-07-11T00:32:15.425Z,4.37
2018-07-11T00:34:43.768Z,5.30
2018-07-11T00:37:12.203Z,3.80
2018-07-11T00:39:40.545Z,3.42
2018-07-11T00:42:08.937Z,8.15
2018-07-11T00:44:37.337Z,6.08
2018-07-11T00:47:05.732Z,4.90
2018-07-11T00:49:34.077Z,4.30
2018-07-11T00:52:02.586Z,5.90
2018-07-11T00:54:30.932Z,8.18
2018-07-11T00:56:59.772Z,3.90
2018-07-11T00:59:29.133Z,7.25
2018-07-11T01:02:03.376Z,10.35
2018-07-11T01:04:31.892Z,8.00
2018-07-11T01:07:01.392Z,7.05
2018-07-11T01:09:30.469Z,6.87
2018-07-11T01:11:58.869Z,4.10
2018-07-11T01:14:27.249Z,5.87
2018-07-11T01:16:55.649Z,4.00
2018-07-11T01:19:24.027Z,6.15
2018-07-11T01:22:02.491Z,5.92
2018-07-11T01:24:32.278Z,5.10
2018-07-11T01:27:01.191Z,9.83
2018-07-11T01:29:29.512Z,6.22
2018-07-11T01:31:57.868Z,7.85
2018-07-11T01:34:26.210Z,7.00
2018-07-11T01:36:54.568Z,10.53
2018-07-11T01:39:22.932Z,8.43
2018-07-11T01:41:51.292Z,6.97
2018-07-11T01:44:19.650Z,6.50
2018-07-11T01:46:50.268Z,5.58
2018-07-11T01:49:18.677Z,4.53
2018-07-11T01:51:58.488Z,5.72
2018-07-11T01:54:27.670Z,6.45
2018-07-11T01:56:56.028Z,6.87
2018-07-11T01:59:26.268Z,5.45
2018-07-11T02:01:54.829Z,8.65
2018-07-11T02:04:23.225Z,7.62
2018-07-11T02:06:51.590Z,12.28
2018-07-11T02:09:20.018Z,7.05
2018-07-11T02:11:48.389Z,12.78
2018-07-11T02:14:16.801Z,8.15
2018-07-11T02:16:45.300Z,7.37
2018-07-11T02:19:21.035Z,5.12
2018-07-11T02:21:50.125Z,6.47
2018-07-11T02:24:19.383Z,6.15
2018-07-11T02:26:47.768Z,5.85
2018-07-11T02:29:16.205Z,5.78
2018-07-11T02:31:44.534Z,5.50
2018-07-11T02:34:12.964Z,9.53
2018-07-11T02:36:41.027Z,8.70
2018-07-11T02:39:09.397Z,7.92
2018-07-11T02:41:37.960Z,7.10
2018-07-11T02:44:06.353Z,6.53
2018-07-11T02:46:40.059Z,10.28
2018-07-11T02:49:08.458Z,9.48
2018-07-11T02:51:37.868Z,6.53
2018-07-11T02:54:06.278Z,8.85
2018-07-11T02:56:34.649Z,8.55
2018-07-11T02:59:03.023Z,15.13
2018-07-11T03:01:31.385Z,7.55
2018-07-11T03:03:59.745Z,9.20
2018-07-11T03:06:28.073Z,8.43
2018-07-11T03:08:56.413Z,10.28
2018-07-11T03:11:24.730Z,9.35
2018-07-11T03:13:53.257Z,9.65
2018-07-11T03:16:21.577Z,7.92
2018-07-11T03:18:49.642Z,8.30
2018-07-11T03:21:18.001Z,9.73
2018-07-11T03:23:46.364Z,8.53
2018-07-11T03:26:14.733Z,14.00
2018-07-11T03:28:43.080Z,10.28
2018-07-11T03:31:11.433Z,10.08
2018-07-11T03:33:39.776Z,7.33
2018-07-11T03:36:08.142Z,7.53
2018-07-11T03:38:36.740Z,10.40
2018-07-11T03:41:05.091Z,7.12
2018-07-11T03:43:33.448Z,9.88
2018-07-11T03:46:01.858Z,7.20
2018-07-11T03:48:30.196Z,12.55
2018-07-11T03:50:58.565Z,9.15
2018-07-11T03:53:26.884Z,7.78
2018-07-11T03:55:55.225Z,9.60
2018-07-11T03:58:23.549Z,10.95
2018-07-11T04:00:51.894Z,12.58
2018-07-11T04:03:20.209Z,15.58
2018-07-11T04:05:48.552Z,10.58
2018-07-11T04:08:16.596Z,8.05
2018-07-11T04:10:44.936Z,17.57
2018-07-11T04:13:16.934Z,13.45
2018-07-11T04:15:45.321Z,10.40
2018-07-11T04:18:21.790Z,10.75
2018-07-11T04:20:50.139Z,9.90
2018-07-11T04:23:18.476Z,14.18
2018-07-11T04:25:46.897Z,11.48
2018-07-11T04:28:15.289Z,8.90
2018-07-11T04:30:43.692Z,10.78
2018-07-11T04:33:12.123Z,19.12
2018-07-11T04:35:40.525Z,12.03
2018-07-11T04:38:08.981Z,18.45
2018-07-11T04:40:37.893Z,11.15
2018-07-11T04:43:06.296Z,11.50
2018-07-11T04:45:34.742Z,11.50
2018-07-11T04:48:03.157Z,12.53
2018-07-11T04:50:31.582Z,18.12
2018-07-11T04:53:01.841Z,10.95
2018-07-11T04:55:30.834Z,14.13
2018-07-11T04:57:59.170Z,8.23
2018-07-11T05:00:27.508Z,12.07
2018-07-11T05:02:56.240Z,10.35
2018-07-11T05:05:24.813Z,11.93
2018-07-11T05:07:53.200Z,19.48
2018-07-11T05:10:21.650Z,12.25
2018-07-11T05:12:50.026Z,16.55
2018-07-11T05:15:18.372Z,18.60
2018-07-11T05:17:46.694Z,13.70
2018-07-11T05:20:15.057Z,15.60
2018-07-11T05:22:43.409Z,16.17
2018-07-11T05:25:11.757Z,13.18
2018-07-11T05:27:40.084Z,13.55
2018-07-11T05:30:08.421Z,12.85
2018-07-11T05:32:36.772Z,15.03
2018-07-11T05:35:05.141Z,13.10
2018-07-11T05:37:33.480Z,11.60
2018-07-11T05:40:01.832Z,13.68
2018-07-11T05:42:30.179Z,19.90
2018-07-11T05:44:58.524Z,14.85
2018-07-11T05:47:26.876Z,16.32
2018-07-11T05:49:54.965Z,11.00
2018-07-11T05:52:23.326Z,14.63
2018-07-11T05:54:51.376Z,20.72
2018-07-11T05:57:22.366Z,17.37
2018-07-11T05:59:50.709Z,12.05
2018-07-11T06:02:19.065Z,19.73
2018-07-11T06:04:47.410Z,14.60
2018-07-11T06:07:15.757Z,18.77
2018-07-11T06:09:44.091Z,16.32
2018-07-11T06:12:12.456Z,25.02
2018-07-11T06:14:40.789Z,21.20
2018-07-11T06:17:09.139Z,16.05
2018-07-11T06:19:37.477Z,21.27
2018-07-11T06:22:05.861Z,21.85
2018-07-11T06:24:35.039Z,19.10
2018-07-11T06:27:03.380Z,17.92
2018-07-11T06:29:31.721Z,16.37
2018-07-11T06:32:00.153Z,13.50
2018-07-11T06:34:28.476Z,12.03
2018-07-11T06:36:56.830Z,14.63
2018-07-11T06:39:25.239Z,20.75
2018-07-11T06:41:53.536Z,18.17
2018-07-11T06:44:21.917Z,15.55
2018-07-11T06:46:50.270Z,11.73
2018-07-11T06:49:18.638Z,16.57
2018-07-11T06:51:47.032Z,15.55
2018-07-11T06:54:15.360Z,13.95
2018-07-11T06:56:43.713Z,15.75
2018-07-11T06:59:12.046Z,20.72
2018-07-11T07:01:40.384Z,17.05
2018-07-11T07:04:08.745Z,18.85
2018-07-11T07:06:37.092Z,12.73
2018-07-11T07:09:06.175Z,14.03
2018-07-11T07:11:34.620Z,16.23
2018-07-11T07:14:02.957Z,12.53
2018-07-11T07:16:31.303Z,15.13
2018-07-11T07:18:59.688Z,16.87
2018-07-11T07:21:28.044Z,14.90
2018-07-11T07:23:56.369Z,13.00
2018-07-11T07:26:24.427Z,18.42
2018-07-11T07:28:52.765Z,12.20
2018-07-11T07:31:21.131Z,14.85
2018-07-11T07:33:49.469Z,9.98
2018-07-11T07:36:17.808Z,17.98
2018-07-11T07:38:46.180Z,9.78
2018-07-11T07:41:14.513Z,14.35
2018-07-11T07:43:44.182Z,17.35
2018-07-11T07:46:12.643Z,12.50
2018-07-11T07:48:41.072Z,13.90
2018-07-11T07:51:09.434Z,18.30
2018-07-11T07:53:37.801Z,12.50
2018-07-11T07:56:06.440Z,15.32
2018-07-11T07:58:34.846Z,10.15
2018-07-11T08:01:03.260Z,21.30
2018-07-11T08:03:34.316Z,20.40
2018-07-11T08:06:02.645Z,16.37
2018-07-11T08:08:30.989Z,14.98
2018-07-11T08:10:59.345Z,19.32
2018-07-11T08:13:27.695Z,14.18
2018-07-11T08:15:56.107Z,16.52
2018-07-11T08:18:24.503Z,17.95
2018-07-11T08:20:52.860Z,19.85
2018-07-11T08:23:40.172Z,20.02
2018-07-11T08:26:19.899Z,20.48
2018-07-11T08:31:01.541Z,16.40
2018-07-11T08:33:44.433Z,14.30
2018-07-11T08:36:24.105Z,14.10
2018-07-11T08:39:04.437Z,16.40
2018-07-11T08:41:47.338Z,18.23
2018-07-11T08:46:29.297Z,15.30
2018-07-11T08:51:20.783Z,14.05
2018-07-11T08:54:04.073Z,23.25
2018-07-11T08:57:17.850Z,12.07
2018-07-11T09:00:02.054Z,20.12
2018-07-11T09:02:56.544Z,11.65
2018-07-11T09:05:32.883Z,13.98
2018-07-11T09:11:15.355Z,14.63
2018-07-11T09:13:53.402Z,21.45
2018-07-11T09:16:32.989Z,17.05
2018-07-11T09:21:20.556Z,13.43
2018-07-11T09:24:02.070Z,8.93
2018-07-11T09:26:30.497Z,13.00
2018-07-11T09:28:58.994Z,7.10
2018-07-11T09:31:27.345Z,14.07
2018-07-11T09:33:55.712Z,8.05
2018-07-11T09:36:24.091Z,6.55
2018-07-11T09:38:52.474Z,13.22
2018-07-11T09:41:20.859Z,8.13
2018-07-11T09:43:49.578Z,13.13
2018-07-11T09:46:17.996Z,18.02
2018-07-11T09:48:46.401Z,11.70
2018-07-11T09:51:14.789Z,11.43
2018-07-11T09:53:43.215Z,8.95
2018-07-11T09:56:11.625Z,12.70
2018-07-11T09:58:40.898Z,11.75
2018-07-11T10:01:14.510Z,17.15
2018-07-11T10:03:42.935Z,15.53
2018-07-11T10:06:11.481Z,20.40
2018-07-11T10:08:39.557Z,14.15
2018-07-11T10:11:07.738Z,17.65
2018-07-11T10:13:36.428Z,13.28
2018-07-11T10:16:04.817Z,11.85
2018-07-11T10:18:33.176Z,11.90
2018-07-11T10:21:01.567Z,10.58
2018-07-11T10:23:29.953Z,11.75
2018-07-11T10:25:58.316Z,10.40
2018-07-11T10:28:26.732Z,13.28
2018-07-11T10:30:55.092Z,11.63
2018-07-11T10:33:23.742Z,8.55
2018-07-11T10:35:52.178Z,7.83
2018-07-11T10:38:20.514Z,6.10
2018-07-11T10:40:48.945Z,7.30
2018-07-11T10:43:18.095Z,6.50
2018-07-11T10:45:46.184Z,4.80
2018-07-11T10:48:14.588Z,9.83
2018-07-11T10:50:43.130Z,14.03
2018-07-11T10:53:12.053Z,9.60
2018-07-11T10:55:41.029Z,7.40
2018-07-11T10:58:09.897Z,11.55
2018-07-11T11:00:38.338Z,7.12
2018-07-11T11:03:06.671Z,5.05
2018-07-11T11:05:35.756Z,4.30
2018-07-11T11:08:04.222Z,4.90
2018-07-11T11:10:32.586Z,5.85
2018-07-11T11:13:01.262Z,7.25
2018-07-11T11:15:29.646Z,8.68
2018-07-11T11:17:58.633Z,7.40
2018-07-11T11:20:27.041Z,6.47
2018-07-11T11:22:55.429Z,6.30
2018-07-11T11:25:23.797Z,5.65
2018-07-11T11:27:52.143Z,7.92
2018-07-11T11:30:20.937Z,4.53
2018-07-11T11:32:49.640Z,5.45
2018-07-11T11:35:18.289Z,6.97
2018-07-11T11:37:46.722Z,6.85
2018-07-11T11:40:15.109Z,9.20
2018-07-11T11:42:43.754Z,10.70
2018-07-11T11:45:12.057Z,9.25
2018-07-11T11:47:40.401Z,12.20
2018-07-11T11:50:08.801Z,9.33
2018-07-11T11:52:37.141Z,7.92
2018-07-11T11:55:05.219Z,6.75
2018-07-11T11:57:33.580Z,6.92
2018-07-11T12:00:01.988Z,6.30
2018-07-11T12:02:30.326Z,9.35
2018-07-11T12:04:58.700Z,6.65
2018-07-11T12:07:27.086Z,9.80
2018-07-11T12:09:55.449Z,14.15
2018-07-11T12:12:23.829Z,6.87
2018-07-11T12:14:52.151Z,4.55
2018-07-11T12:17:20.229Z,6.92
2018-07-11T12:19:48.266Z,5.37
2018-07-11T12:22:20.670Z,4.95
2018-07-11T12:24:48.826Z,6.65
2018-07-11T12:27:17.625Z,6.78
2018-07-11T12:29:46.144Z,8.48
2018-07-11T12:32:14.705Z,6.90
2018-07-11T12:34:43.241Z,5.75
2018-07-11T12:37:12.252Z,6.50
2018-07-11T12:39:40.733Z,8.38
2018-07-11T12:42:09.684Z,6.05
2018-07-11T12:44:38.108Z,6.80
2018-07-11T12:48:10.588Z,8.55
2018-07-11T12:50:39.052Z,4.60
2018-07-11T12:53:07.408Z,6.20
2018-07-11T12:55:35.832Z,11.83
2018-07-11T12:58:04.482Z,5.58
2018-07-11T13:00:33.267Z,7.50
2018-07-11T13:04:25.452Z,23.92
2018-07-11T13:06:55.125Z,11.22
2018-07-11T13:09:26.242Z,6.83
2018-07-11T13:11:56.564Z,6.83
2018-07-11T13:14:25.865Z,7.87
2018-07-11T13:16:56.215Z,5.42
2018-07-11T13:19:25.240Z,5.62
2018-07-11T13:21:53.608Z,5.67
2018-07-11T13:24:22.025Z,6.30
2018-07-11T13:26:50.636Z,6.08
2018-07-11T13:29:19.665Z,5.12
2018-07-11T13:31:48.321Z,6.87
2018-07-11T13:34:16.818Z,5.58
2018-07-11T13:36:45.319Z,3.70
2018-07-11T13:39:22.645Z,5.70
2018-07-11T13:41:51.657Z,6.05
2018-07-11T13:44:20.010Z,6.85
2018-07-11T13:46:48.618Z,6.75
2018-07-11T13:49:17.004Z,6.12
2018-07-11T13:51:45.361Z,10.28
2018-07-11T13:54:13.749Z,6.05
2018-07-11T13:56:42.317Z,7.83
2018-07-11T13:59:10.700Z,7.15
2018-07-11T14:01:39.064Z,5.75
2018-07-11T14:04:07.523Z,5.80
2018-07-11T14:06:36.168Z,5.75
2018-07-11T14:09:05.749Z,6.20
2018-07-11T14:11:34.480Z,7.35
2018-07-11T14:14:04.415Z,8.10
2018-07-11T14:16:33.754Z,6.25
2018-07-11T14:19:02.378Z,10.15
2018-07-11T14:21:31.272Z,4.62
2018-07-11T14:23:59.994Z,5.78
2018-07-11T14:26:29.194Z,7.03
2018-07-11T14:28:57.994Z,7.92
2018-07-11T14:31:30.684Z,5.10
2018-07-11T14:34:00.914Z,5.28
2018-07-11T14:36:29.307Z,4.50
2018-07-11T14:38:58.074Z,5.85
2018-07-11T14:41:26.454Z,6.00
2018-07-11T14:43:55.673Z,6.92
2018-07-11T14:46:25.261Z,6.50
2018-07-11T14:48:53.746Z,4.00
2018-07-11T14:51:22.191Z,7.60
2018-07-11T14:53:50.884Z,5.10
2018-07-11T14:56:19.285Z,6.67
2018-07-11T14:58:47.701Z,3.90
2018-07-11T15:01:16.092Z,5.53
2018-07-11T15:03:44.485Z,4.17
2018-07-11T15:06:13.912Z,5.67
2018-07-11T15:08:42.383Z,3.33
2018-07-11T15:11:10.848Z,7.08
2018-07-11T15:13:39.232Z,4.60
2018-07-11T15:16:07.605Z,4.15
2018-07-11T15:18:36.013Z,3.98
2018-07-11T15:21:04.445Z,3.37
2018-07-11T15:23:32.837Z,6.33
2018-07-11T15:26:01.304Z,3.85
2018-07-11T15:28:29.782Z,3.40
2018-07-11T15:30:58.169Z,3.60
2018-07-11T15:33:26.829Z,5.40
2018-07-11T15:35:55.225Z,3.65
2018-07-11T15:38:23.629Z,5.05
2018-07-11T15:40:52.017Z,4.40
2018-07-11T15:43:20.097Z,2.90
2018-07-11T15:45:48.234Z,2.85
2018-07-11T15:48:16.728Z,4.10
2018-07-11T15:50:45.176Z,6.50
2018-07-11T15:53:13.566Z,5.92
2018-07-11T15:55:42.217Z,3.70
2018-07-11T15:58:12.812Z,4.62
2018-07-11T16:00:42.405Z,6.53
2018-07-11T16:03:12.233Z,4.08
2018-07-11T16:05:42.670Z,4.37
2018-07-11T16:08:10.955Z,6.78
2018-07-11T16:10:41.603Z,3.92
2018-07-11T16:13:10.878Z,2.77
2018-07-11T16:15:39.295Z,3.20
2018-07-11T16:18:08.317Z,5.20
2018-07-11T16:20:37.236Z,6.78
2018-07-11T16:23:06.125Z,5.40
2018-07-11T16:25:34.580Z,2.47
2018-07-11T16:28:03.713Z,4.37
2018-07-11T16:30:32.113Z,5.22
2018-07-11T16:33:00.765Z,4.72
2018-07-11T16:35:29.156Z,4.87
2018-07-11T16:37:57.676Z,2.50
2018-07-11T16:40:26.473Z,3.52
2018-07-11T16:42:54.909Z,4.00
2018-07-11T16:45:23.707Z,4.10
2018-07-11T16:47:52.109Z,7.30
2018-07-11T16:50:20.977Z,2.95
2018-07-11T16:52:49.996Z,2.87
2018-07-11T16:55:18.440Z,3.02
2018-07-11T16:57:48.041Z,4.92
2018-07-11T17:00:21.940Z,2.42
2018-07-11T17:03:14.757Z,5.42
2018-07-11T17:05:57.412Z,4.03
2018-07-11T17:08:31.094Z,5.03
2018-07-11T17:11:32.357Z,4.28
2018-07-11T17:14:02.204Z,2.17
2018-07-11T17:17:05.073Z,4.00
2018-07-11T17:19:38.842Z,2.95
2018-07-11T17:22:08.080Z,3.55
2018-07-11T17:24:45.749Z,4.67
2018-07-11T17:27:14.310Z,2.58
2018-07-11T17:29:43.208Z,4.45
2018-07-11T17:32:12.352Z,2.70
2018-07-11T17:34:41.070Z,8.50
2018-07-11T17:37:10.827Z,5.97
2018-07-11T17:39:51.238Z,3.77
2018-07-11T17:42:22.058Z,5.75
2018-07-11T17:45:09.301Z,8.28
2018-07-11T17:47:46.997Z,4.95
2018-07-11T17:50:15.574Z,4.42
2018-07-11T17:53:21.527Z,4.62
2018-07-11T17:56:00.129Z,5.42
2018-07-11T17:58:54.632Z,3.15
2018-07-11T18:01:31.441Z,6.00
2018-07-11T18:04:21.036Z,8.95
2018-07-11T18:07:04.938Z,3.02
2018-07-11T18:09:39.609Z,3.65
2018-07-11T18:12:10.597Z,3.65
2018-07-11T18:14:48.325Z,3.85
2018-07-11T18:17:31.621Z,5.62
2018-07-11T18:20:17.384Z,5.83
2018-07-11T18:22:59.073Z,2.42
2018-07-11T18:25:40.136Z,4.58
2018-07-11T18:28:20.021Z,6.92
2018-07-11T18:30:59.799Z,3.40
2018-07-11T18:33:39.062Z,3.83
2018-07-11T18:36:47.741Z,9.88
2018-07-11T18:39:25.061Z,4.65
2018-07-11T18:44:10.702Z,3.00
2018-07-11T18:46:49.715Z,2.87
2018-07-11T18:49:21.589Z,10.08
2018-07-11T18:52:53.590Z,4.65
2018-07-11T18:55:35.445Z,3.58
2018-07-11T19:00:20.006Z,2.65
2018-07-11T19:05:01.820Z,2.25
2018-07-11T19:09:48.191Z,3.80
2018-07-11T19:12:32.829Z,5.60
2018-07-11T19:15:09.636Z,3.05
2018-07-11T19:20:55.502Z,3.55
2018-07-11T19:24:00.608Z,4.15
2018-07-11T19:26:40.641Z,9.40
2018-07-11T19:29:21.857Z,4.12
2018-07-11T19:32:00.461Z,3.95
2018-07-11T19:35:41.164Z,9.30
2018-07-11T19:38:13.980Z,3.85
2018-07-11T19:40:49.375Z,5.80
2018-07-11T19:45:32.800Z,4.35
2018-07-11T19:48:11.825Z,4.40
2018-07-11T19:51:06.466Z,7.15
2018-07-11T19:53:36.806Z,5.83
2018-07-11T19:56:19.114Z,7.00
2018-07-11T19:58:47.497Z,6.37
2018-07-11T20:01:15.849Z,6.22
2018-07-11T20:03:44.261Z,28.80
2018-07-11T20:06:12.638Z,15.95
2018-07-11T20:08:41.117Z,6.60
2018-07-11T20:11:09.487Z,6.28
2018-07-11T20:13:37.894Z,5.25
2018-07-11T20:16:06.350Z,6.37
2018-07-11T20:18:34.885Z,3.90
2018-07-11T20:21:03.276Z,5.20
2018-07-11T20:23:31.620Z,4.75
2018-07-11T20:26:00.042Z,4.50
2018-07-11T20:28:28.408Z,4.70
2018-07-11T20:30:56.804Z,2.85
2018-07-11T20:33:25.220Z,5.53
2018-07-11T20:35:53.641Z,3.35
2018-07-11T20:38:21.996Z,7.03
2018-07-11T20:40:50.405Z,3.45
2018-07-11T20:43:18.817Z,5.25
2018-07-11T20:45:47.498Z,6.17
2018-07-11T20:48:16.029Z,3.87
2018-07-11T20:50:44.418Z,4.22
2018-07-11T20:53:12.813Z,4.87
2018-07-11T20:55:41.190Z,5.35
2018-07-11T20:58:20.720Z,4.12
2018-07-11T21:01:00.429Z,5.62
2018-07-11T21:04:37.633Z,6.35
2018-07-11T21:09:24.241Z,7.70
2018-07-11T21:14:13.686Z,3.65
2018-07-11T21:16:49.056Z,8.15
2018-07-11T21:19:17.413Z,4.58
2018-07-11T21:21:45.761Z,2.90
2018-07-11T21:24:14.440Z,3.52
2018-07-11T21:26:42.785Z,4.00
2018-07-11T21:29:11.122Z,4.15
2018-07-11T21:31:39.489Z,6.05
2018-07-11T21:34:07.826Z,6.72
2018-07-11T21:36:36.149Z,4.17
2018-07-11T21:39:05.375Z,3.70
2018-07-11T21:41:33.584Z,3.47
2018-07-11T21:44:01.939Z,4.92
2018-07-11T21:46:30.353Z,4.87
2018-07-11T21:48:58.665Z,5.47
2018-07-11T21:51:26.977Z,6.17
2018-07-11T21:53:55.325Z,4.55
2018-07-11T21:56:23.668Z,4.62
2018-07-11T21:58:52.014Z,4.47
2018-07-11T22:01:20.394Z,5.25
2018-07-11T22:03:48.424Z,4.97
2018-07-11T22:06:16.808Z,8.85
2018-07-11T22:08:45.121Z,4.67
2018-07-11T22:11:13.493Z,5.50
2018-07-11T22:13:41.845Z,4.20
2018-07-11T22:16:10.187Z,5.90
2018-07-11T22:18:42.202Z,8.35
2018-07-11T22:21:10.459Z,6.55
2018-07-11T22:23:37.756Z,6.10
2018-07-11T22:26:05.293Z,8.20
2018-07-11T22:28:32.561Z,5.53
2018-07-11T22:30:59.853Z,6.35
2018-07-11T22:33:27.134Z,14.30
2018-07-11T22:35:54.454Z,8.00
2018-07-11T22:38:21.697Z,6.17
2018-07-11T22:40:49.009Z,4.40
2018-07-11T22:43:16.273Z,5.75
2018-07-11T22:45:43.535Z,4.70
2018-07-11T22:48:10.833Z,6.62
2018-07-11T22:50:38.092Z,6.58
2018-07-11T22:53:05.379Z,4.97
2018-07-11T22:55:32.636Z,9.63
2018-07-11T22:57:59.930Z,7.12
2018-07-11T23:00:27.259Z,8.18
2018-07-11T23:02:54.517Z,4.67
2018-07-11T23:05:21.789Z,5.28
2018-07-11T23:07:49.076Z,8.00
2018-07-11T23:10:16.340Z,6.85
2018-07-11T23:12:43.633Z,6.40
2018-07-11T23:15:11.156Z,6.03
2018-07-11T23:17:38.453Z,6.78
2018-07-11T23:20:05.979Z,4.85
2018-07-11T23:22:33.273Z,8.13
2018-07-11T23:25:00.532Z,5.47
2018-07-11T23:27:27.819Z,4.55
2018-07-11T23:29:55.130Z,4.08
2018-07-11T23:32:22.393Z,7.05
2018-07-11T23:34:49.904Z,8.53
2018-07-11T23:37:17.194Z,6.65
2018-07-11T23:39:44.485Z,6.65
2018-07-11T23:42:11.847Z,6.17
2018-07-11T23:44:39.137Z,7.30
2018-07-11T23:47:06.425Z,5.70
2018-07-11T23:49:33.689Z,6.45
2018-07-11T23:52:00.985Z,6.37
2018-07-11T23:54:28.246Z,5.85
2018-07-11T23:56:55.541Z,10.65
2018-07-11T23:59:22.800Z,6.30
